Time;durP1;ratioP1;P1;durP2;ratioP2;P2;SDS_P1;SDS_P2;PMS_P1;PMS_P2;Temp;Humidity;BMP_temperature;BMP_pressure;BME280_temperature;BME280_humidity;BME280_pressure;Samples;Min_cycle;Max_cycle;Signal;HPM_P1;HPM_P2
2023/09/12 00:00:05;;;;;;;4.13;3.93;;;;;;;20.14;81.36;100969.41;4897721;29;20228;-67
2023/09/12 00:02:37;;;;;;;4.90;4.80;;;;;;;20.16;81.06;100961.88;4897803;29;20181;-66
2023/09/12 00:05:04;;;;;;;4.93;4.83;;;;;;;20.11;80.98;100959.81;4896774;29;20203;-66
2023/09/12 00:07:31;;;;;;;4.93;4.77;;;;;;;20.09;81.66;100967.31;4897702;29;20257;-66
2023/09/12 00:09:57;;;;;;;4.87;4.13;;;;;;;20.08;81.27;100966.47;4897555;29;20284;-66
2023/09/12 00:12:27;;;;;;;5.47;5.27;;;;;;;20.10;81.51;100968.97;4897680;29;20193;-66
2023/09/12 00:14:54;;;;;;;4.47;4.33;;;;;;;20.34;80.15;100978.41;4897924;29;20177;-66
2023/09/12 00:17:20;;;;;;;5.70;5.27;;;;;;;20.09;80.79;100967.31;4897863;29;20236;-66
2023/09/12 00:19:47;;;;;;;4.80;4.60;;;;;;;19.94;81.13;100963.97;4898043;29;20208;-66
2023/09/12 00:22:13;;;;;;;6.20;5.70;;;;;;;19.81;81.78;100958.50;4896316;29;20204;-66
2023/09/12 00:24:40;;;;;;;4.93;4.73;;;;;;;19.76;82.32;100953.69;4897595;29;20189;-66
2023/09/12 00:27:07;;;;;;;4.90;4.80;;;;;;;19.72;82.13;100943.47;4898126;29;20224;-66
2023/09/12 00:29:34;;;;;;;4.77;4.67;;;;;;;19.71;82.65;100952.63;4901662;29;20208;-67
2023/09/12 00:32:00;;;;;;;5.03;4.77;;;;;;;19.72;82.76;100957.03;4901262;29;20253;-67
2023/09/12 00:34:28;;;;;;;4.13;3.97;;;;;;;19.72;82.61;100974.16;4899721;29;20605;-66
2023/09/12 00:36:54;;;;;;;6.23;5.70;;;;;;;20.02;81.89;100996.31;4901166;29;20197;-66
2023/09/12 00:39:21;;;;;;;11.00;5.70;;;;;;;20.19;80.73;101013.91;4899581;29;20204;-67
2023/09/12 00:41:47;;;;;;;5.97;5.57;;;;;;;20.02;81.23;101015.31;4900747;29;20216;-66
2023/09/12 00:44:14;;;;;;;6.57;6.00;;;;;;;19.99;82.17;101034.72;4901335;29;20185;-66
2023/09/12 00:46:43;;;;;;;9.13;6.40;;;;;;;19.64;84.98;101054.88;4900787;29;20196;-66
2023/09/12 00:49:10;;;;;;;14.53;9.00;;;;;;;19.52;86.21;101093.41;4899436;29;20197;-67
2023/09/12 00:51:37;;;;;;;11.87;10.63;;;;;;;19.63;87.02;101096.59;4900903;29;20614;-66
2023/09/12 00:54:04;;;;;;;16.00;12.13;;;;;;;19.67;87.60;101104.13;4900645;29;20216;-66
2023/09/12 00:56:30;;;;;;;14.57;13.27;;;;;;;19.70;87.38;101033.19;4900897;29;20185;-66
2023/09/12 00:58:57;;;;;;;17.13;12.03;;;;;;;19.42;89.01;100883.28;4900560;29;20200;-64
2023/09/12 01:01:24;;;;;;;16.97;13.80;;;;;;;19.41;88.83;100849.91;4900457;29;20213;-66
2023/09/12 01:03:51;;;;;;;18.80;14.97;;;;;;;19.52;89.09;100848.47;4900655;29;20657;-66
2023/09/12 01:06:21;;;;;;;24.57;16.67;;;;;;;19.58;89.03;100825.97;4900393;29;20562;-65
2023/09/12 01:08:48;;;;;;;24.93;16.17;;;;;;;19.54;88.02;100822.00;4900727;29;20236;-65
2023/09/12 01:11:16;;;;;;;26.80;17.23;;;;;;;19.59;87.91;100844.75;4900158;29;20284;-66
2023/09/12 01:13:43;;;;;;;26.13;16.67;;;;;;;19.73;87.39;100880.84;4900290;29;20189;-65
2023/09/12 01:16:09;;;;;;;24.20;15.80;;;;;;;19.84;87.04;100903.81;4900510;29;20200;-66
2023/09/12 01:18:36;;;;;;;19.57;16.00;;;;;;;20.02;85.67;100923.03;4900195;29;20189;-66
2023/09/12 01:21:18;;;;;;;33.67;19.13;;;;;;;20.23;84.77;100936.41;4898880;29;20220;-66
2023/09/12 01:24:25;;;;;;;28.07;20.53;;;;;;;20.22;85.16;100928.47;4900164;29;20576;-66
2023/09/12 01:27:12;;;;;;;30.33;18.80;;;;;;;20.18;85.28;100936.19;4896462;29;20193;-66
2023/09/12 01:29:40;;;;;;;29.40;19.50;;;;;;;20.24;84.63;100942.69;4900006;29;20248;-66
2023/09/12 01:32:06;;;;;;;23.03;16.50;;;;;;;20.10;84.73;100930.97;4900460;29;20606;-66
2023/09/12 01:34:33;;;;;;;30.83;17.90;;;;;;;20.03;85.04;100924.69;4898630;29;20204;-66
2023/09/12 01:36:59;;;;;;;25.63;16.83;;;;;;;20.02;85.73;100925.75;4900124;29;20608;-66
2023/09/12 01:39:25;;;;;;;23.03;16.73;;;;;;;20.27;84.63;100936.81;4899292;29;20200;-66
2023/09/12 01:41:54;;;;;;;27.97;17.37;;;;;;;20.19;84.33;100937.03;4899646;29;20597;-66
2023/09/12 01:44:24;;;;;;;25.57;16.03;;;;;;;20.17;84.73;100936.41;4900299;29;20180;-66
2023/09/12 01:46:53;;;;;;;22.47;16.73;;;;;;;20.07;85.05;100924.06;4898483;29;20233;-66
2023/09/12 01:49:22;;;;;;;22.50;17.20;;;;;;;20.02;85.74;100912.19;4899807;29;20252;-66
2023/09/12 01:51:49;;;;;;;18.80;14.53;;;;;;;20.01;85.63;100913.22;4899501;29;20220;-66
2023/09/12 01:54:16;;;;;;;25.20;17.67;;;;;;;20.06;85.36;100927.84;4898295;29;20252;-66
2023/09/12 01:56:43;;;;;;;32.10;17.60;;;;;;;20.19;84.02;100950.63;4898272;29;20203;-66
2023/09/12 01:59:10;;;;;;;21.87;16.07;;;;;;;20.13;84.60;100954.16;4899632;29;20273;-66
2023/09/12 02:01:37;;;;;;;27.83;19.47;;;;;;;20.14;84.59;100953.94;4898129;29;20201;-66
2023/09/12 02:04:08;;;;;;;26.60;18.60;;;;;;;20.14;84.85;100958.53;4898086;29;20236;-66
2023/09/12 02:06:35;;;;;;;27.37;15.40;;;;;;;20.01;85.28;100954.78;4899621;29;20180;-66
2023/09/12 02:09:02;;;;;;;28.83;17.27;;;;;;;19.93;85.53;100946.00;4899268;29;20575;-66
2023/09/12 02:11:28;;;;;;;18.10;13.00;;;;;;;19.91;85.85;100943.47;4897823;29;20220;-66
2023/09/12 02:13:55;;;;;;;19.73;14.57;;;;;;;19.91;85.82;100932.63;4897897;29;20200;-66
2023/09/12 02:16:21;;;;;;;16.43;14.50;;;;;;;19.90;86.16;100922.81;4899124;29;20203;-66
2023/09/12 02:18:48;;;;;;;24.60;16.70;;;;;;;19.84;86.21;100903.81;4897863;29;20592;-66
2023/09/12 02:21:15;;;;;;;25.17;16.23;;;;;;;19.81;86.52;100893.41;4899183;29;20212;-65
2023/09/12 02:23:42;;;;;;;21.83;16.23;;;;;;;19.80;86.20;100887.13;4899202;29;20271;-65
2023/09/12 02:26:08;;;;;;;28.53;17.47;;;;;;;19.75;86.66;100894.22;4897701;29;20205;-65
2023/09/12 02:28:35;;;;;;;24.00;16.23;;;;;;;19.78;86.92;100921.75;4899111;29;20195;-65
2023/09/12 02:31:01;;;;;;;24.37;16.53;;;;;;;19.79;86.57;100934.28;4898633;29;20216;-66
2023/09/12 02:33:28;;;;;;;34.67;18.00;;;;;;;20.17;85.28;100945.38;4897591;29;20197;-66
2023/09/12 02:35:54;;;;;;;26.67;17.80;;;;;;;20.18;85.04;100965.22;4897541;29;20199;-66
2023/09/12 02:38:21;;;;;;;21.27;16.37;;;;;;;20.01;85.62;100934.94;4898756;29;20196;-66
2023/09/12 02:40:47;;;;;;;28.30;17.50;;;;;;;19.95;86.15;100924.91;4899236;29;20219;-66
2023/09/12 02:43:14;;;;;;;29.63;18.43;;;;;;;19.85;86.57;100928.03;4898742;29;20279;-65
2023/09/12 02:45:40;;;;;;;23.30;17.00;;;;;;;19.79;86.96;100939.72;4897371;29;20609;-65
2023/09/12 02:48:07;;;;;;;14.37;12.37;;;;;;;19.79;87.18;100955.16;4899106;29;20192;-66
2023/09/12 02:50:33;;;;;;;32.23;18.90;;;;;;;19.92;86.57;100972.28;4897716;29;20220;-67
2023/09/12 02:53:00;;;;;;;21.43;16.50;;;;;;;19.86;86.30;100956.03;4897504;29;20216;-66
2023/09/12 02:55:27;;;;;;;29.80;17.30;;;;;;;19.87;87.09;100968.53;4897244;29;20653;-66
2023/09/12 02:57:53;;;;;;;29.90;17.87;;;;;;;20.07;86.04;100955.84;4897190;29;20260;-66
2023/09/12 03:00:20;;;;;;;30.13;17.20;;;;;;;19.86;86.38;100962.25;4897084;29;20217;-66
2023/09/12 03:02:46;;;;;;;30.00;18.20;;;;;;;19.96;86.73;100992.56;4897130;29;20192;-66
2023/09/12 03:05:13;;;;;;;30.93;19.50;;;;;;;20.06;86.68;100979.44;4897118;29;20223;-66
2023/09/12 03:07:39;;;;;;;23.27;17.40;;;;;;;19.89;87.45;100988.16;4897047;29;20203;-66
2023/09/12 03:10:07;;;;;;;29.33;19.50;;;;;;;19.86;87.33;100972.31;4896904;29;20223;-67
2023/09/12 03:12:36;;;;;;;47.73;20.33;;;;;;;19.76;88.07;100953.69;4897047;29;20259;-67
2023/09/12 03:15:03;;;;;;;34.67;18.30;;;;;;;19.70;88.29;100907.56;4898788;29;20223;-67
2023/09/12 03:17:29;;;;;;;27.80;17.67;;;;;;;19.66;88.23;100890.84;4898511;29;20200;-67
2023/09/12 03:19:56;;;;;;;34.33;19.73;;;;;;;19.53;89.26;100888.97;4898410;29;20307;-66
2023/09/12 03:22:22;;;;;;;27.60;17.40;;;;;;;19.53;89.30;100897.09;4896966;29;20220;-67
2023/09/12 03:24:49;;;;;;;24.30;17.20;;;;;;;19.51;89.21;100898.34;4896954;29;20199;-67
2023/09/12 03:27:16;;;;;;;27.57;18.23;;;;;;;19.46;89.43;100898.97;4897139;29;20200;-67
2023/09/12 03:29:46;;;;;;;34.90;17.60;;;;;;;19.53;89.38;100907.09;4896855;29;20307;-68
2023/09/12 03:32:13;;;;;;;27.47;15.80;;;;;;;19.51;89.18;100895.66;4896822;29;20216;-68
2023/09/12 03:34:39;;;;;;;31.63;18.27;;;;;;;19.47;89.26;100886.25;4896889;29;20204;-68
2023/09/12 03:37:06;;;;;;;24.90;17.23;;;;;;;19.43;89.62;100887.72;4898116;29;20188;-68
2023/09/12 03:39:32;;;;;;;28.77;18.03;;;;;;;19.42;89.60;100884.13;4896789;29;20600;-69
2023/09/12 03:41:59;;;;;;;22.80;15.73;;;;;;;19.44;89.63;100889.34;4896894;29;20211;-69
2023/09/12 03:44:26;;;;;;;23.27;16.60;;;;;;;19.43;89.90;100891.25;4896844;29;20264;-68
2023/09/12 03:46:52;;;;;;;20.83;15.43;;;;;;;19.44;89.59;100883.94;4896982;29;20196;-68
2023/09/12 03:49:19;;;;;;;17.27;15.00;;;;;;;19.44;89.62;100879.34;4896691;29;20197;-69
2023/09/12 03:51:45;;;;;;;23.33;16.00;;;;;;;19.41;89.47;100876.19;4896629;29;20247;-68
2023/09/12 03:54:12;;;;;;;15.60;13.80;;;;;;;19.40;90.06;100866.38;4897920;29;20256;-68
2023/09/12 03:56:38;;;;;;;23.37;16.77;;;;;;;19.39;89.86;100879.09;4896697;29;20245;-68
2023/09/12 03:59:05;;;;;;;15.90;14.23;;;;;;;19.39;89.68;100873.66;4898100;29;20200;-70
2023/09/12 04:01:31;;;;;;;15.53;12.87;;;;;;;19.39;90.04;100864.72;4898911;29;20256;-69
2023/09/12 04:03:59;;;;;;;18.67;14.33;;;;;;;19.41;89.58;100854.50;4900325;29;20660;-68
2023/09/12 04:06:29;;;;;;;15.00;13.10;;;;;;;19.34;89.84;100848.22;4902186;29;20180;-68
2023/09/12 04:08:56;;;;;;;25.67;16.70;;;;;;;19.30;89.65;100836.13;4902229;29;20684;-68
2023/09/12 04:11:22;;;;;;;24.90;17.90;;;;;;;19.23;90.04;100837.97;4901339;29;20208;-68
2023/09/12 04:14:08;;;;;;;20.90;16.10;;;;;;;19.21;90.43;100837.34;4901462;29;20188;-67
2023/09/12 04:16:35;;;;;;;20.03;15.10;;;;;;;19.18;90.38;100838.59;4901929;29;20173;-68
2023/09/12 04:19:03;;;;;;;26.63;18.70;;;;;;;19.15;90.57;100830.88;4899986;29;20692;-67
2023/09/12 04:21:29;;;;;;;26.60;17.63;;;;;;;19.12;90.34;100834.84;4899960;29;20213;-68
2023/09/12 04:23:56;;;;;;;19.30;15.57;;;;;;;19.11;90.54;100833.16;4900019;29;20760;-68
2023/09/12 04:26:22;;;;;;;27.53;16.53;;;;;;;19.11;90.51;100841.28;4900232;29;20205;-68
2023/09/12 04:28:50;;;;;;;25.43;17.23;;;;;;;19.13;90.22;100841.94;4901239;29;20320;-68
2023/09/12 04:31:16;;;;;;;19.97;16.17;;;;;;;19.14;90.19;100848.16;4899701;29;20292;-67
2023/09/12 04:33:43;;;;;;;14.37;12.90;;;;;;;19.12;90.40;100851.09;4900202;29;20728;-67
2023/09/12 04:36:09;;;;;;;20.03;14.33;;;;;;;19.13;90.08;100844.66;4901593;29;20212;-67
2023/09/12 04:38:37;;;;;;;22.23;16.40;;;;;;;19.10;90.50;100853.16;4899797;29;20668;-67
2023/09/12 04:41:05;;;;;;;19.97;16.43;;;;;;;19.06;90.57;100851.91;4899670;29;20216;-67
2023/09/12 04:43:32;;;;;;;21.37;15.63;;;;;;;19.07;90.32;100853.59;4899683;29;20200;-67
2023/09/12 04:45:59;;;;;;;19.03;16.20;;;;;;;19.06;90.44;100851.06;4899680;29;20208;-67
2023/09/12 04:48:25;;;;;;;18.67;14.23;;;;;;;19.04;90.37;100864.84;4900860;29;20192;-67
2023/09/12 04:50:52;;;;;;;20.00;14.80;;;;;;;19.03;90.22;100868.56;4900982;29;20676;-68
2023/09/12 04:53:18;;;;;;;19.13;14.73;;;;;;;19.04;90.32;100870.25;4899683;29;20196;-68
2023/09/12 04:55:45;;;;;;;24.57;16.30;;;;;;;19.02;90.42;100872.31;4900772;29;20639;-67
2023/09/12 04:58:11;;;;;;;18.80;15.13;;;;;;;19.04;90.31;100877.53;4899442;29;20200;-67
2023/09/12 05:00:39;;;;;;;20.67;16.03;;;;;;;19.00;90.40;100879.84;4899371;29;20223;-67
2023/09/12 05:03:06;;;;;;;19.47;15.30;;;;;;;19.02;90.28;100880.44;4899359;29;20200;-68
2023/09/12 05:05:36;;;;;;;23.13;16.97;;;;;;;19.00;90.76;100881.69;4899329;29;20204;-68
2023/09/12 05:08:03;;;;;;;25.60;16.00;;;;;;;19.00;90.53;100882.53;4899203;29;20197;-68
2023/09/12 05:10:30;;;;;;;24.90;15.47;;;;;;;19.02;90.77;100890.44;4899340;29;20217;-69
2023/09/12 05:12:57;;;;;;;15.57;14.10;;;;;;;19.04;90.98;100886.50;4898383;29;20689;-68
2023/09/12 05:15:23;;;;;;;18.77;14.43;;;;;;;19.06;90.89;100889.84;4899416;29;20207;-68
2023/09/12 05:17:50;;;;;;;18.27;14.73;;;;;;;19.08;90.95;100886.94;4899118;29;20197;-68
2023/09/12 05:20:16;;;;;;;24.23;16.23;;;;;;;19.10;90.56;100879.44;4900700;29;20220;-68
2023/09/12 05:22:43;;;;;;;20.13;15.70;;;;;;;19.11;90.50;100878.41;4898914;29;20196;-68
2023/09/12 05:25:09;;;;;;;16.63;13.80;;;;;;;19.14;90.79;100888.81;4900466;29;20188;-68
2023/09/12 05:27:36;;;;;;;23.03;17.13;;;;;;;19.35;89.63;100893.28;4900419;29;20188;-68
2023/09/12 05:30:03;;;;;;;29.30;17.13;;;;;;;19.52;88.55;100910.84;4898806;29;20288;-68
2023/09/12 05:32:29;;;;;;;23.53;17.33;;;;;;;19.54;88.53;100925.91;4898588;29;20213;-68
2023/09/12 05:34:56;;;;;;;30.37;16.97;;;;;;;19.58;88.52;100934.47;4899001;29;20740;-68
2023/09/12 05:37:42;;;;;;;16.47;14.33;;;;;;;19.35;89.38;100925.81;4899182;29;20184;-68
2023/09/12 05:40:10;;;;;;;17.20;14.50;;;;;;;19.29;90.20;100915.78;4898712;29;20637;-69
2023/09/12 05:42:36;;;;;;;19.10;15.20;;;;;;;19.23;90.12;100906.56;4898442;29;20209;-69
2023/09/12 05:45:03;;;;;;;17.47;14.70;;;;;;;19.23;90.40;100889.47;4898502;29;20228;-69
2023/09/12 05:47:30;;;;;;;20.50;15.73;;;;;;;19.14;90.95;100870.69;4898422;29;20288;-68
2023/09/12 05:49:56;;;;;;;18.37;14.47;;;;;;;19.07;90.55;100871.72;4899962;29;20216;-69
2023/09/12 05:52:22;;;;;;;24.40;18.10;;;;;;;19.11;90.86;100892.78;4898332;29;20220;-69
2023/09/12 05:54:49;;;;;;;35.13;17.50;;;;;;;19.21;90.75;100918.69;4898381;29;20283;-69
2023/09/12 05:57:16;;;;;;;30.57;19.30;;;;;;;19.47;89.71;100918.78;4899833;29;20560;-69
2023/09/12 05:59:43;;;;;;;28.57;17.97;;;;;;;19.29;90.50;100915.78;4898226;29;20242;-69
2023/09/12 06:02:10;;;;;;;28.87;17.60;;;;;;;19.16;91.05;100917.41;4899772;29;20181;-69
2023/09/12 06:04:36;;;;;;;21.83;15.40;;;;;;;19.13;91.55;100931.38;4899381;29;20665;-69
2023/09/12 06:07:04;;;;;;;25.67;18.10;;;;;;;19.14;91.58;100940.31;4899317;29;20189;-69
2023/09/12 06:09:31;;;;;;;20.40;15.80;;;;;;;19.14;91.67;100962.84;4899555;29;20204;-69
2023/09/12 06:11:57;;;;;;;19.47;13.47;;;;;;;19.15;91.51;100963.69;4899231;29;20208;-69
2023/09/12 06:14:24;;;;;;;17.40;14.53;;;;;;;19.15;91.96;100969.94;4899269;29;20245;-69
2023/09/12 06:16:50;;;;;;;22.13;16.20;;;;;;;19.20;92.01;100971.22;4899474;29;20610;-69
2023/09/12 06:19:19;;;;;;;30.47;17.83;;;;;;;19.25;91.81;100980.41;4899151;29;20589;-70
2023/09/12 06:21:46;;;;;;;26.33;17.43;;;;;;;19.47;90.75;100984.72;4899344;29;20196;-69
2023/09/12 06:24:17;;;;;;;29.17;18.90;;;;;;;19.49;90.54;100984.50;4899320;29;20193;-69
2023/09/12 06:26:43;;;;;;;34.33;18.43;;;;;;;19.60;90.46;100992.88;4899051;29;20657;-69
2023/09/12 06:29:10;;;;;;;29.07;18.23;;;;;;;19.77;89.64;101019.66;4899191;29;20192;-69
2023/09/12 06:31:36;;;;;;;31.57;18.87;;;;;;;19.50;90.99;101062.94;4899116;29;20208;-67
2023/09/12 06:34:03;;;;;;;36.30;19.23;;;;;;;19.32;91.75;101097.00;4898913;29;20184;-67
2023/09/12 06:36:30;;;;;;;37.07;21.73;;;;;;;19.18;91.93;101118.63;4898766;29;20256;-67
2023/09/12 06:38:57;;;;;;;38.83;22.77;;;;;;;19.17;92.24;101116.13;4898850;29;20215;-67
2023/09/12 06:41:24;;;;;;;48.00;23.70;;;;;;;19.09;92.73;101084.59;4898737;29;20705;-68
2023/09/12 06:43:50;;;;;;;44.07;23.50;;;;;;;19.05;92.94;101033.69;4898676;29;20280;-70
2023/09/12 06:46:17;;;;;;;43.50;24.17;;;;;;;19.07;92.86;100996.38;4898659;29;20224;-71
2023/09/12 06:48:50;;;;;;;39.20;22.70;;;;;;;19.00;93.11;100963.00;4898708;29;20740;-71
2023/09/12 06:51:17;;;;;;;40.53;22.80;;;;;;;18.93;93.95;100930.44;4898598;29;20208;-72
2023/09/12 06:53:43;;;;;;;46.97;22.27;;;;;;;18.93;94.02;100943.97;4898904;29;20189;-71
2023/09/12 06:56:10;;;;;;;44.27;21.87;;;;;;;18.91;94.06;100956.06;4898528;29;20220;-71
2023/09/12 06:58:37;;;;;;;38.73;23.17;;;;;;;19.03;94.20;100982.38;4898536;29;20225;-71
2023/09/12 07:01:05;;;;;;;37.53;20.43;;;;;;;19.00;93.87;100971.97;4898452;29;20216;-70
2023/09/12 07:03:33;;;;;;;49.67;22.37;;;;;;;18.96;94.02;100964.44;4898747;29;20556;-70
2023/09/12 07:05:59;;;;;;;45.10;20.93;;;;;;;18.96;94.37;100930.06;4898567;29;20257;-70
2023/09/12 07:08:27;;;;;;;35.37;20.23;;;;;;;18.96;94.14;100940.06;4898602;29;20188;-70
2023/09/12 07:10:56;;;;;;;44.77;22.60;;;;;;;18.97;94.72;100955.25;4898251;29;20248;-71
2023/09/12 07:13:24;;;;;;;43.00;22.93;;;;;;;18.94;94.24;100953.78;4898304;29;20241;-69
2023/09/12 07:15:50;;;;;;;38.33;22.27;;;;;;;18.97;94.02;100934.41;4898316;29;20665;-69
2023/09/12 07:18:18;;;;;;;40.57;22.67;;;;;;;18.92;94.31;100946.91;4898251;29;20196;-68
2023/09/12 07:20:45;;;;;;;33.13;22.30;;;;;;;18.89;94.42;100964.38;4898180;29;20216;-69
2023/09/12 07:23:12;;;;;;;34.33;21.17;;;;;;;18.89;94.17;100958.13;4898542;29;20195;-69
2023/09/12 07:25:40;;;;;;;33.23;19.83;;;;;;;18.89;94.48;100958.97;4898400;29;20197;-69
2023/09/12 07:28:07;;;;;;;49.70;21.73;;;;;;;18.88;94.10;100970.03;4898371;29;20195;-69
2023/09/12 07:30:35;;;;;;;29.70;18.10;;;;;;;18.90;94.41;100954.38;4898044;29;20220;-70
2023/09/12 07:33:04;;;;;;;39.93;21.00;;;;;;;18.84;94.02;100952.50;4898345;29;20197;-70
2023/09/12 07:35:30;;;;;;;31.80;19.20;;;;;;;18.88;94.42;100956.47;4898831;29;20209;-70
2023/09/12 07:37:57;;;;;;;34.13;19.00;;;;;;;18.92;94.29;100955.03;4904575;29;20653;-70
2023/09/12 07:40:23;;;;;;;35.50;20.30;;;;;;;18.97;94.44;100966.09;4904447;29;20629;-71
2023/09/12 07:42:50;;;;;;;38.50;20.13;;;;;;;18.97;94.47;100969.63;4904378;29;20210;-71
2023/09/12 07:45:16;;;;;;;30.27;18.10;;;;;;;19.03;94.06;100965.28;4904275;29;20196;-71
2023/09/12 07:47:43;;;;;;;32.73;19.67;;;;;;;19.04;94.01;100959.69;4904227;29;20688;-71
2023/09/12 07:50:09;;;;;;;39.03;21.70;;;;;;;19.03;93.55;100965.28;4904413;29;20220;-71
2023/09/12 07:52:36;;;;;;;38.77;19.10;;;;;;;19.01;94.26;100960.06;4904194;29;20193;-70
2023/09/12 07:55:03;;;;;;;21.17;16.17;;;;;;;19.01;94.04;100956.53;4904214;29;20192;-70
2023/09/12 07:57:29;;;;;;;25.97;16.27;;;;;;;19.02;94.31;100952.78;4904167;29;20248;-70
2023/09/12 07:59:56;;;;;;;21.43;17.27;;;;;;;19.04;93.82;100939.88;4904365;29;20294;-70
2023/09/12 08:02:23;;;;;;;27.23;17.03;;;;;;;19.05;94.40;100931.53;4904426;29;20597;-70
2023/09/12 08:04:56;;;;;;;20.03;15.10;;;;;;;19.08;93.78;100931.16;4904144;29;20206;-70
2023/09/12 08:07:22;;;;;;;21.87;17.17;;;;;;;19.12;93.91;100943.25;4904364;29;20192;-70
2023/09/12 08:09:57;;;;;;;24.17;17.23;;;;;;;19.15;94.39;100940.13;4904235;29;20213;-70
2023/09/12 08:12:25;;;;;;;20.23;15.37;;;;;;;19.15;93.92;100942.84;4904056;29;20608;-70
2023/09/12 08:14:52;;;;;;;24.67;15.30;;;;;;;19.16;93.74;100944.50;4904605;29;20191;-70
2023/09/12 08:17:19;;;;;;;17.43;12.20;;;;;;;19.17;94.13;100951.63;4903948;29;20628;-70
2023/09/12 08:19:45;;;;;;;19.77;13.13;;;;;;;19.17;94.15;100951.63;4903996;29;20708;-70
2023/09/12 08:22:13;;;;;;;17.90;15.03;;;;;;;19.16;94.32;100960.78;4904032;29;20259;-70
2023/09/12 08:24:40;;;;;;;17.10;13.93;;;;;;;19.16;93.72;100949.94;4904200;29;20578;-70
2023/09/12 08:27:08;;;;;;;16.47;11.83;;;;;;;19.17;93.78;100948.06;4904195;29;20715;-70
2023/09/12 08:29:35;;;;;;;14.83;12.93;;;;;;;19.20;93.87;100954.94;4903909;29;20220;-70
2023/09/12 08:32:02;;;;;;;15.43;13.83;;;;;;;19.24;94.09;100961.63;4903836;29;20208;-70
2023/09/12 08:34:29;;;;;;;13.53;11.83;;;;;;;19.23;94.03;100968.09;4903884;29;20679;-70
2023/09/12 08:36:55;;;;;;;17.93;14.50;;;;;;;19.22;93.96;100967.28;4904138;29;20244;-70
2023/09/12 08:39:26;;;;;;;12.13;11.03;;;;;;;19.24;93.64;100967.06;4904065;29;20184;-70
2023/09/12 08:41:53;;;;;;;16.30;14.67;;;;;;;19.23;93.46;100976.22;4904266;29;20169;-70
2023/09/12 08:44:21;;;;;;;14.60;12.80;;;;;;;19.26;93.49;100973.97;4904421;29;20624;-70
2023/09/12 08:46:47;;;;;;;13.60;12.40;;;;;;;19.28;93.96;100968.31;4904063;29;20653;-69
2023/09/12 08:49:15;;;;;;;14.53;12.27;;;;;;;19.31;94.09;100984.22;4900340;29;20601;-70
2023/09/12 08:51:42;;;;;;;15.60;13.83;;;;;;;19.33;93.80;100984.81;4900724;29;20213;-70
2023/09/12 08:54:09;;;;;;;18.77;14.97;;;;;;;19.32;94.36;100988.56;4900726;29;20563;-68
2023/09/12 08:56:39;;;;;;;21.53;14.07;;;;;;;19.33;94.40;100990.25;4901304;29;20240;-69
2023/09/12 08:59:06;;;;;;;19.73;15.57;;;;;;;19.33;94.21;100988.38;4901218;29;20622;-69
2023/09/12 09:01:34;;;;;;;12.83;11.63;;;;;;;19.41;93.80;100980.06;4901145;29;20185;-70
2023/09/12 09:04:03;;;;;;;32.30;13.87;;;;;;;19.51;94.59;100987.84;4900618;29;20192;-69
2023/09/12 09:06:32;;;;;;;21.67;16.83;;;;;;;19.56;94.74;100996.22;4900805;29;20631;-68
2023/09/12 09:09:00;;;;;;;21.90;14.20;;;;;;;19.67;94.11;100998.34;4900491;29;20203;-69
2023/09/12 09:11:27;;;;;;;24.80;15.83;;;;;;;19.72;94.68;101004.00;4900386;29;20208;-69
2023/09/12 09:13:56;;;;;;;23.97;15.93;;;;;;;19.81;94.31;101008.19;4900526;29;20591;-69
2023/09/12 09:16:22;;;;;;;18.17;14.40;;;;;;;19.96;94.72;101008.00;4900335;29;20192;-69
2023/09/12 09:18:53;;;;;;;23.17;14.57;;;;;;;20.07;94.33;101016.34;4900322;29;20232;-69
2023/09/12 09:21:27;;;;;;;20.50;14.90;;;;;;;20.12;94.05;101023.03;4900689;29;20688;-70
2023/09/12 09:23:55;;;;;;;15.93;14.30;;;;;;;20.13;94.30;101016.59;4900553;29;20201;-70
2023/09/12 09:26:21;;;;;;;15.20;13.87;;;;;;;20.15;94.05;101019.94;4900186;29;20680;-70
2023/09/12 09:29:06;;;;;;;14.07;12.90;;;;;;;20.16;93.78;101018.88;4900634;29;20256;-70
2023/09/12 09:31:33;;;;;;;13.70;12.60;;;;;;;20.16;93.12;101021.59;4900618;29;20181;-70
2023/09/12 09:34:01;;;;;;;13.10;12.10;;;;;;;20.11;91.76;101034.97;4900231;29;20227;-70
2023/09/12 09:36:27;;;;;;;10.77;10.27;;;;;;;20.09;90.93;101035.16;4900263;29;20607;-70
2023/09/12 09:38:59;;;;;;;11.57;10.77;;;;;;;19.98;90.34;101031.19;4899939;29;20681;-70
2023/09/12 09:41:26;;;;;;;11.70;10.87;;;;;;;20.00;90.17;101039.94;4899856;29;20731;-70
2023/09/12 09:43:52;;;;;;;15.40;13.30;;;;;;;20.06;90.02;101033.72;4899843;29;20185;-70
2023/09/12 09:46:19;;;;;;;23.07;14.23;;;;;;;20.07;89.90;101038.06;4900095;29;20197;-70
2023/09/12 09:48:50;;;;;;;11.63;10.67;;;;;;;20.07;89.98;101035.38;4899811;29;20281;-70
2023/09/12 09:51:19;;;;;;;15.00;13.27;;;;;;;20.11;89.92;101043.97;4899705;29;20212;-69
2023/09/12 09:53:47;;;;;;;11.33;10.57;;;;;;;20.11;90.17;101043.97;4899893;29;20212;-69
2023/09/12 09:56:16;;;;;;;9.63;9.03;;;;;;;20.14;89.97;101039.97;4899899;29;20201;-69
2023/09/12 09:58:52;;;;;;;10.73;9.97;;;;;;;20.17;90.55;101037.69;4899420;29;20193;-69
2023/09/12 10:01:20;;;;;;;9.30;8.53;;;;;;;20.19;90.12;101032.91;4899553;29;20216;-69
2023/09/12 10:03:48;;;;;;;8.53;8.23;;;;;;;20.24;89.72;101037.72;4899523;29;20229;-69
2023/09/12 10:06:17;;;;;;;10.10;9.60;;;;;;;20.29;89.66;101043.31;4899771;29;20195;-69
2023/09/12 10:08:46;;;;;;;9.67;9.30;;;;;;;20.35;89.59;101037.94;4899487;29;20200;-69
2023/09/12 10:11:15;;;;;;;10.80;10.10;;;;;;;20.36;89.17;101042.34;4899360;29;20212;-69
2023/09/12 10:13:49;;;;;;;9.47;8.80;;;;;;;20.47;88.72;101041.72;4899504;29;20253;-69
2023/09/12 10:16:16;;;;;;;10.57;9.47;;;;;;;20.48;88.67;101043.41;4899575;29;20648;-69
2023/09/12 10:18:55;;;;;;;9.50;8.60;;;;;;;20.54;88.22;101030.03;4899498;29;20212;-69
2023/09/12 10:21:31;;;;;;;12.27;11.33;;;;;;;20.74;86.22;101042.56;4899679;29;20330;-69
2023/09/12 10:23:59;;;;;;;10.83;10.23;;;;;;;20.78;84.76;101046.53;4899691;29;20204;-69
2023/09/12 10:26:26;;;;;;;11.10;10.17;;;;;;;20.80;85.04;101046.28;4899070;29;20207;-69
2023/09/12 10:28:55;;;;;;;10.57;9.90;;;;;;;20.79;85.16;101033.78;4898977;29;20193;-69
2023/09/12 10:31:23;;;;;;;11.17;10.17;;;;;;;20.83;85.25;101038.56;4899378;29;20217;-71
2023/09/12 10:33:50;;;;;;;9.97;9.47;;;;;;;20.86;85.72;101029.16;4899354;29;20722;-71
2023/09/12 10:36:19;;;;;;;8.10;7.70;;;;;;;20.90;85.84;101036.69;4898814;29;20216;-71
2023/09/12 10:38:48;;;;;;;11.23;10.33;;;;;;;20.94;85.96;101021.63;4899218;29;20212;-70
2023/09/12 10:41:16;;;;;;;11.97;11.27;;;;;;;20.95;86.08;101022.44;4898790;29;20278;-70
2023/09/12 10:43:49;;;;;;;13.87;12.93;;;;;;;21.01;85.33;101020.75;4898779;29;20191;-70
2023/09/12 10:46:16;;;;;;;11.60;10.83;;;;;;;21.04;84.83;101010.31;4898810;29;20257;-70
2023/09/12 10:48:43;;;;;;;9.80;9.17;;;;;;;21.11;84.70;101010.28;4898715;29;20193;-70
2023/09/12 10:51:12;;;;;;;11.23;10.37;;;;;;;21.19;84.40;101013.63;4898814;29;20304;-70
2023/09/12 10:53:45;;;;;;;10.60;10.07;;;;;;;21.30;84.69;101018.41;4898499;29;20204;-70
2023/09/12 10:56:12;;;;;;;9.73;9.23;;;;;;;21.37;84.19;101013.78;4899152;29;20191;-70
2023/09/12 10:59:06;;;;;;;11.50;10.40;;;;;;;21.42;84.69;101015.88;4898552;29;20192;-70
2023/09/12 11:01:37;;;;;;;11.60;10.67;;;;;;;21.37;84.21;101016.50;4898492;29;20189;-70
2023/09/12 11:04:18;;;;;;;9.87;9.47;;;;;;;21.38;84.17;101018.19;4899014;29;20188;-70
2023/09/12 11:06:49;;;;;;;13.07;12.27;;;;;;;21.45;82.82;101012.69;4898677;29;20613;-70
2023/09/12 11:09:23;;;;;;;12.67;11.70;;;;;;;21.48;82.00;101016.88;4898902;29;20191;-71
2023/09/12 11:11:53;;;;;;;11.03;10.07;;;;;;;21.49;82.02;101010.38;4897766;29;20276;-70
2023/09/12 11:14:20;;;;;;;11.87;10.93;;;;;;;21.52;81.66;101005.34;4898777;29;20216;-70